sensor_id;sensor_type;location;lat;lon;timestamp;P1;durP1;ratioP1;P2;durP2;ratioP2
69170;SDS011;56279;47.902;12.308;2023-06-22T00:00:14;10.10;;;3.67;;
69170;SDS011;56279;47.902;12.308;2023-06-22T00:02:15;9.63;;;3.90;;
69170;SDS011;56279;47.902;12.308;2023-06-22T00:04:16;7.72;;;3.50;;
69170;SDS011;56279;47.902;12.308;2023-06-22T00:06:18;10.57;;;3.88;;
69170;SDS011;56279;47.902;12.308;2023-06-22T00:08:19;9.15;;;4.20;;
69170;SDS011;56279;47.902;12.308;2023-06-22T00:10:20;12.52;;;4.40;;
69170;SDS011;56279;47.902;12.308;2023-06-22T00:12:22;9.97;;;4.37;;
69170;SDS011;56279;47.902;12.308;2023-06-22T00:14:24;10.73;;;4.88;;
69170;SDS011;56279;47.902;12.308;2023-06-22T00:16:25;10.38;;;4.10;;
69170;SDS011;56279;47.902;12.308;2023-06-22T00:18:26;8.02;;;3.83;;
69170;SDS011;56279;47.902;12.308;2023-06-22T00:20:28;10.27;;;4.25;;
69170;SDS011;56279;47.902;12.308;2023-06-22T00:22:30;8.20;;;3.73;;
69170;SDS011;56279;47.902;12.308;2023-06-22T00:24:32;9.32;;;3.65;;
69170;SDS011;56279;47.902;12.308;2023-06-22T00:26:33;8.90;;;3.95;;
69170;SDS011;56279;47.902;12.308;2023-06-22T00:28:35;9.85;;;4.13;;
69170;SDS011;56279;47.902;12.308;2023-06-22T00:30:36;8.88;;;3.95;;
69170;SDS011;56279;47.902;12.308;2023-06-22T00:32:38;9.70;;;3.53;;
69170;SDS011;56279;47.902;12.308;2023-06-22T00:34:39;11.13;;;3.65;;
69170;SDS011;56279;47.902;12.308;2023-06-22T00:36:40;9.63;;;4.28;;
69170;SDS011;56279;47.902;12.308;2023-06-22T00:38:41;13.90;;;4.55;;
69170;SDS011;56279;47.902;12.308;2023-06-22T00:40:43;7.78;;;3.70;;
69170;SDS011;56279;47.902;12.308;2023-06-22T00:42:45;9.80;;;3.67;;
69170;SDS011;56279;47.902;12.308;2023-06-22T00:44:47;10.93;;;4.25;;
69170;SDS011;56279;47.902;12.308;2023-06-22T00:46:48;8.80;;;3.97;;
69170;SDS011;56279;47.902;12.308;2023-06-22T00:48:50;9.07;;;4.13;;
69170;SDS011;56279;47.902;12.308;2023-06-22T00:50:52;9.05;;;3.88;;
69170;SDS011;56279;47.902;12.308;2023-06-22T00:52:58;9.43;;;4.13;;
69170;SDS011;56279;47.902;12.308;2023-06-22T00:55:04;10.13;;;3.90;;
69170;SDS011;56279;47.902;12.308;2023-06-22T00:57:07;10.90;;;4.20;;
69170;SDS011;56279;47.902;12.308;2023-06-22T00:59:12;11.23;;;4.38;;
69170;SDS011;56279;47.902;12.308;2023-06-22T01:01:14;10.02;;;4.63;;
69170;SDS011;56279;47.902;12.308;2023-06-22T01:03:15;9.90;;;3.80;;
69170;SDS011;56279;47.902;12.308;2023-06-22T01:05:21;9.88;;;3.78;;
69170;SDS011;56279;47.902;12.308;2023-06-22T01:09:35;8.48;;;3.80;;
69170;SDS011;56279;47.902;12.308;2023-06-22T01:11:50;8.90;;;4.22;;
69170;SDS011;56279;47.902;12.308;2023-06-22T01:16:12;11.88;;;4.30;;
69170;SDS011;56279;47.902;12.308;2023-06-22T01:18:18;15.88;;;5.30;;
69170;SDS011;56279;47.902;12.308;2023-06-22T01:20:26;11.43;;;4.55;;
69170;SDS011;56279;47.902;12.308;2023-06-22T01:22:30;11.98;;;4.63;;
69170;SDS011;56279;47.902;12.308;2023-06-22T01:24:45;10.97;;;4.70;;
69170;SDS011;56279;47.902;12.308;2023-06-22T01:29:27;9.60;;;4.75;;
69170;SDS011;56279;47.902;12.308;2023-06-22T01:31:31;10.85;;;5.38;;
69170;SDS011;56279;47.902;12.308;2023-06-22T01:33:37;12.45;;;5.15;;
69170;SDS011;56279;47.902;12.308;2023-06-22T01:35:41;14.80;;;5.63;;
69170;SDS011;56279;47.902;12.308;2023-06-22T01:37:43;12.93;;;5.85;;
69170;SDS011;56279;47.902;12.308;2023-06-22T01:39:45;9.85;;;4.40;;
69170;SDS011;56279;47.902;12.308;2023-06-22T01:41:47;11.38;;;5.53;;
69170;SDS011;56279;47.902;12.308;2023-06-22T01:43:50;8.93;;;5.05;;
69170;SDS011;56279;47.902;12.308;2023-06-22T01:45:54;14.23;;;4.90;;
69170;SDS011;56279;47.902;12.308;2023-06-22T01:47:57;10.40;;;4.80;;
69170;SDS011;56279;47.902;12.308;2023-06-22T01:49:58;11.23;;;5.82;;
69170;SDS011;56279;47.902;12.308;2023-06-22T01:52:00;10.50;;;5.43;;
69170;SDS011;56279;47.902;12.308;2023-06-22T01:54:05;11.75;;;5.40;;
69170;SDS011;56279;47.902;12.308;2023-06-22T01:56:08;10.47;;;5.37;;
69170;SDS011;56279;47.902;12.308;2023-06-22T01:58:10;9.93;;;4.72;;
69170;SDS011;56279;47.902;12.308;2023-06-22T02:00:12;11.93;;;5.72;;
69170;SDS011;56279;47.902;12.308;2023-06-22T02:02:19;11.52;;;5.40;;
69170;SDS011;56279;47.902;12.308;2023-06-22T02:04:28;9.18;;;5.40;;
69170;SDS011;56279;47.902;12.308;2023-06-22T02:06:36;12.87;;;5.33;;
69170;SDS011;56279;47.902;12.308;2023-06-22T02:08:40;14.75;;;6.00;;
69170;SDS011;56279;47.902;12.308;2023-06-22T02:10:46;10.88;;;5.53;;
69170;SDS011;56279;47.902;12.308;2023-06-22T02:12:49;13.18;;;4.88;;
69170;SDS011;56279;47.902;12.308;2023-06-22T02:14:52;12.15;;;5.90;;
69170;SDS011;56279;47.902;12.308;2023-06-22T02:16:54;15.17;;;6.43;;
69170;SDS011;56279;47.902;12.308;2023-06-22T02:18:55;11.73;;;5.88;;
69170;SDS011;56279;47.902;12.308;2023-06-22T02:20:58;13.88;;;6.47;;
69170;SDS011;56279;47.902;12.308;2023-06-22T02:23:02;12.98;;;6.20;;
69170;SDS011;56279;47.902;12.308;2023-06-22T02:25:04;12.73;;;6.28;;
69170;SDS011;56279;47.902;12.308;2023-06-22T02:27:05;10.97;;;5.67;;
69170;SDS011;56279;47.902;12.308;2023-06-22T02:29:08;10.73;;;5.75;;
69170;SDS011;56279;47.902;12.308;2023-06-22T02:31:09;11.48;;;6.38;;
69170;SDS011;56279;47.902;12.308;2023-06-22T02:33:10;13.05;;;5.88;;
69170;SDS011;56279;47.902;12.308;2023-06-22T02:35:11;13.45;;;5.80;;
69170;SDS011;56279;47.902;12.308;2023-06-22T02:37:13;11.87;;;6.37;;
69170;SDS011;56279;47.902;12.308;2023-06-22T02:39:21;13.93;;;6.03;;
69170;SDS011;56279;47.902;12.308;2023-06-22T02:41:24;13.10;;;6.10;;
69170;SDS011;56279;47.902;12.308;2023-06-22T02:43:26;13.50;;;6.30;;
69170;SDS011;56279;47.902;12.308;2023-06-22T02:45:27;11.85;;;6.53;;
69170;SDS011;56279;47.902;12.308;2023-06-22T02:47:29;11.73;;;6.03;;
69170;SDS011;56279;47.902;12.308;2023-06-22T02:49:30;11.10;;;6.43;;
69170;SDS011;56279;47.902;12.308;2023-06-22T02:51:33;12.43;;;6.47;;
69170;SDS011;56279;47.902;12.308;2023-06-22T02:53:37;12.70;;;6.00;;
69170;SDS011;56279;47.902;12.308;2023-06-22T02:55:39;13.32;;;6.05;;
69170;SDS011;56279;47.902;12.308;2023-06-22T02:57:41;13.17;;;6.27;;
69170;SDS011;56279;47.902;12.308;2023-06-22T02:59:45;15.40;;;6.72;;
69170;SDS011;56279;47.902;12.308;2023-06-22T03:01:47;12.93;;;6.40;;
69170;SDS011;56279;47.902;12.308;2023-06-22T03:03:55;12.50;;;6.20;;
69170;SDS011;56279;47.902;12.308;2023-06-22T03:05:56;10.60;;;6.22;;
69170;SDS011;56279;47.902;12.308;2023-06-22T03:07:58;13.87;;;6.40;;
69170;SDS011;56279;47.902;12.308;2023-06-22T03:10:01;13.48;;;6.50;;
69170;SDS011;56279;47.902;12.308;2023-06-22T03:12:03;12.27;;;6.63;;
69170;SDS011;56279;47.902;12.308;2023-06-22T03:14:16;12.73;;;6.43;;
69170;SDS011;56279;47.902;12.308;2023-06-22T03:16:17;12.32;;;6.53;;
69170;SDS011;56279;47.902;12.308;2023-06-22T03:18:19;14.00;;;6.33;;
69170;SDS011;56279;47.902;12.308;2023-06-22T03:20:20;11.80;;;6.45;;
69170;SDS011;56279;47.902;12.308;2023-06-22T03:22:21;15.23;;;7.13;;
69170;SDS011;56279;47.902;12.308;2023-06-22T03:24:24;13.35;;;5.90;;
69170;SDS011;56279;47.902;12.308;2023-06-22T03:26:25;9.18;;;5.80;;
69170;SDS011;56279;47.902;12.308;2023-06-22T03:28:27;11.87;;;6.03;;
69170;SDS011;56279;47.902;12.308;2023-06-22T03:30:29;11.70;;;6.50;;
69170;SDS011;56279;47.902;12.308;2023-06-22T03:32:31;13.13;;;6.13;;
69170;SDS011;56279;47.902;12.308;2023-06-22T03:34:33;16.20;;;6.72;;
69170;SDS011;56279;47.902;12.308;2023-06-22T03:36:36;10.45;;;5.80;;
69170;SDS011;56279;47.902;12.308;2023-06-22T03:38:38;13.03;;;6.70;;
69170;SDS011;56279;47.902;12.308;2023-06-22T03:40:39;11.65;;;5.47;;
69170;SDS011;56279;47.902;12.308;2023-06-22T03:42:40;10.00;;;5.85;;
69170;SDS011;56279;47.902;12.308;2023-06-22T03:44:44;14.52;;;6.32;;
69170;SDS011;56279;47.902;12.308;2023-06-22T03:46:45;12.32;;;6.05;;
69170;SDS011;56279;47.902;12.308;2023-06-22T03:48:46;13.30;;;6.33;;
69170;SDS011;56279;47.902;12.308;2023-06-22T03:50:47;12.88;;;6.20;;
69170;SDS011;56279;47.902;12.308;2023-06-22T03:52:48;14.77;;;6.40;;
69170;SDS011;56279;47.902;12.308;2023-06-22T03:54:52;12.48;;;6.30;;
69170;SDS011;56279;47.902;12.308;2023-06-22T03:56:53;9.68;;;5.65;;
69170;SDS011;56279;47.902;12.308;2023-06-22T03:58:54;11.27;;;5.73;;
69170;SDS011;56279;47.902;12.308;2023-06-22T04:00:56;14.02;;;6.47;;
69170;SDS011;56279;47.902;12.308;2023-06-22T04:02:57;13.32;;;5.30;;
69170;SDS011;56279;47.902;12.308;2023-06-22T04:04:59;16.63;;;6.43;;
69170;SDS011;56279;47.902;12.308;2023-06-22T04:07:00;11.02;;;5.95;;
69170;SDS011;56279;47.902;12.308;2023-06-22T04:09:01;12.20;;;5.37;;
69170;SDS011;56279;47.902;12.308;2023-06-22T04:11:03;13.38;;;6.15;;
69170;SDS011;56279;47.902;12.308;2023-06-22T04:13:04;15.73;;;6.38;;
69170;SDS011;56279;47.902;12.308;2023-06-22T04:15:06;12.65;;;6.10;;
69170;SDS011;56279;47.902;12.308;2023-06-22T04:17:07;13.52;;;5.97;;
69170;SDS011;56279;47.902;12.308;2023-06-22T04:19:08;14.57;;;5.87;;
69170;SDS011;56279;47.902;12.308;2023-06-22T04:21:15;12.70;;;5.70;;
69170;SDS011;56279;47.902;12.308;2023-06-22T04:23:16;13.13;;;5.90;;
69170;SDS011;56279;47.902;12.308;2023-06-22T04:25:17;15.68;;;6.82;;
69170;SDS011;56279;47.902;12.308;2023-06-22T04:27:20;15.50;;;6.72;;
69170;SDS011;56279;47.902;12.308;2023-06-22T04:29:24;13.53;;;5.70;;
69170;SDS011;56279;47.902;12.308;2023-06-22T04:31:29;11.60;;;5.97;;
69170;SDS011;56279;47.902;12.308;2023-06-22T04:33:32;16.70;;;6.65;;
69170;SDS011;56279;47.902;12.308;2023-06-22T04:35:34;14.93;;;6.30;;
69170;SDS011;56279;47.902;12.308;2023-06-22T04:37:35;16.08;;;6.15;;
69170;SDS011;56279;47.902;12.308;2023-06-22T04:39:36;13.90;;;6.13;;
69170;SDS011;56279;47.902;12.308;2023-06-22T04:41:38;13.20;;;5.72;;
69170;SDS011;56279;47.902;12.308;2023-06-22T04:43:43;12.02;;;5.68;;
69170;SDS011;56279;47.902;12.308;2023-06-22T04:45:44;11.15;;;5.63;;
69170;SDS011;56279;47.902;12.308;2023-06-22T04:47:46;13.85;;;5.53;;
69170;SDS011;56279;47.902;12.308;2023-06-22T04:49:47;13.63;;;6.07;;
69170;SDS011;56279;47.902;12.308;2023-06-22T04:51:49;12.38;;;6.10;;
69170;SDS011;56279;47.902;12.308;2023-06-22T04:53:52;16.63;;;6.82;;
69170;SDS011;56279;47.902;12.308;2023-06-22T04:56:01;14.05;;;6.22;;
69170;SDS011;56279;47.902;12.308;2023-06-22T04:58:05;12.82;;;5.75;;
69170;SDS011;56279;47.902;12.308;2023-06-22T05:00:06;16.10;;;5.97;;
69170;SDS011;56279;47.902;12.308;2023-06-22T05:02:15;10.88;;;5.40;;
69170;SDS011;56279;47.902;12.308;2023-06-22T05:04:16;13.40;;;5.93;;
69170;SDS011;56279;47.902;12.308;2023-06-22T05:06:17;13.95;;;6.10;;
69170;SDS011;56279;47.902;12.308;2023-06-22T05:08:19;11.38;;;5.57;;
69170;SDS011;56279;47.902;12.308;2023-06-22T05:10:20;11.77;;;5.80;;
69170;SDS011;56279;47.902;12.308;2023-06-22T05:12:21;19.35;;;6.45;;
69170;SDS011;56279;47.902;12.308;2023-06-22T05:14:22;13.25;;;6.10;;
69170;SDS011;56279;47.902;12.308;2023-06-22T05:16:24;14.20;;;5.38;;
69170;SDS011;56279;47.902;12.308;2023-06-22T05:18:26;11.70;;;5.55;;
69170;SDS011;56279;47.902;12.308;2023-06-22T05:20:30;11.47;;;4.90;;
69170;SDS011;56279;47.902;12.308;2023-06-22T05:22:32;13.82;;;5.70;;
69170;SDS011;56279;47.902;12.308;2023-06-22T05:24:33;15.70;;;5.47;;
69170;SDS011;56279;47.902;12.308;2023-06-22T05:26:34;17.23;;;5.43;;
69170;SDS011;56279;47.902;12.308;2023-06-22T05:28:36;15.60;;;5.95;;
69170;SDS011;56279;47.902;12.308;2023-06-22T05:30:37;11.10;;;5.60;;
69170;SDS011;56279;47.902;12.308;2023-06-22T05:32:39;11.98;;;5.75;;
69170;SDS011;56279;47.902;12.308;2023-06-22T05:34:40;11.48;;;5.72;;
69170;SDS011;56279;47.902;12.308;2023-06-22T05:36:41;10.52;;;5.38;;
69170;SDS011;56279;47.902;12.308;2023-06-22T05:38:44;13.85;;;5.90;;
69170;SDS011;56279;47.902;12.308;2023-06-22T05:40:46;16.23;;;5.87;;
69170;SDS011;56279;47.902;12.308;2023-06-22T05:42:47;11.32;;;5.57;;
69170;SDS011;56279;47.902;12.308;2023-06-22T05:44:49;13.30;;;5.43;;
69170;SDS011;56279;47.902;12.308;2023-06-22T05:46:50;13.80;;;5.97;;
69170;SDS011;56279;47.902;12.308;2023-06-22T05:48:51;12.10;;;5.88;;
69170;SDS011;56279;47.902;12.308;2023-06-22T05:50:53;13.63;;;6.30;;
69170;SDS011;56279;47.902;12.308;2023-06-22T05:52:55;14.45;;;5.32;;
69170;SDS011;56279;47.902;12.308;2023-06-22T05:54:56;15.52;;;6.15;;
69170;SDS011;56279;47.902;12.308;2023-06-22T05:56:57;10.48;;;5.07;;
69170;SDS011;56279;47.902;12.308;2023-06-22T05:58:59;12.60;;;5.18;;
69170;SDS011;56279;47.902;12.308;2023-06-22T06:01:00;11.17;;;5.57;;
69170;SDS011;56279;47.902;12.308;2023-06-22T06:03:01;13.05;;;5.55;;
69170;SDS011;56279;47.902;12.308;2023-06-22T06:05:04;11.82;;;5.07;;
69170;SDS011;56279;47.902;12.308;2023-06-22T06:07:06;15.98;;;6.07;;
69170;SDS011;56279;47.902;12.308;2023-06-22T06:09:07;14.05;;;5.72;;
69170;SDS011;56279;47.902;12.308;2023-06-22T06:11:09;14.23;;;5.07;;
69170;SDS011;56279;47.902;12.308;2023-06-22T06:13:10;10.68;;;4.93;;
69170;SDS011;56279;47.902;12.308;2023-06-22T06:15:11;11.90;;;5.93;;
69170;SDS011;56279;47.902;12.308;2023-06-22T06:17:12;11.40;;;5.10;;
69170;SDS011;56279;47.902;12.308;2023-06-22T06:19:15;14.40;;;5.78;;
69170;SDS011;56279;47.902;12.308;2023-06-22T06:21:16;12.33;;;5.00;;
69170;SDS011;56279;47.902;12.308;2023-06-22T06:23:18;12.50;;;5.40;;
69170;SDS011;56279;47.902;12.308;2023-06-22T06:25:19;14.75;;;6.13;;
69170;SDS011;56279;47.902;12.308;2023-06-22T06:27:22;15.60;;;5.75;;
69170;SDS011;56279;47.902;12.308;2023-06-22T06:29:30;16.33;;;6.15;;
69170;SDS011;56279;47.902;12.308;2023-06-22T06:31:32;12.00;;;5.17;;
69170;SDS011;56279;47.902;12.308;2023-06-22T06:33:34;14.32;;;5.18;;
69170;SDS011;56279;47.902;12.308;2023-06-22T06:35:36;10.75;;;5.38;;
69170;SDS011;56279;47.902;12.308;2023-06-22T06:37:39;14.07;;;5.38;;
69170;SDS011;56279;47.902;12.308;2023-06-22T06:39:41;13.35;;;4.97;;
69170;SDS011;56279;47.902;12.308;2023-06-22T06:41:43;16.57;;;5.97;;
69170;SDS011;56279;47.902;12.308;2023-06-22T06:43:49;14.13;;;5.47;;
69170;SDS011;56279;47.902;12.308;2023-06-22T06:45:51;17.35;;;6.28;;
69170;SDS011;56279;47.902;12.308;2023-06-22T06:47:52;12.55;;;5.50;;
69170;SDS011;56279;47.902;12.308;2023-06-22T06:49:53;12.35;;;5.30;;
69170;SDS011;56279;47.902;12.308;2023-06-22T06:51:55;14.40;;;5.23;;
69170;SDS011;56279;47.902;12.308;2023-06-22T06:53:56;13.70;;;5.22;;
69170;SDS011;56279;47.902;12.308;2023-06-22T06:55:58;15.63;;;4.90;;
69170;SDS011;56279;47.902;12.308;2023-06-22T06:57:59;11.10;;;4.85;;
69170;SDS011;56279;47.902;12.308;2023-06-22T07:00:00;12.63;;;5.65;;
69170;SDS011;56279;47.902;12.308;2023-06-22T07:02:02;12.20;;;5.20;;
69170;SDS011;56279;47.902;12.308;2023-06-22T07:04:03;12.30;;;5.43;;
69170;SDS011;56279;47.902;12.308;2023-06-22T07:06:04;12.50;;;5.80;;
69170;SDS011;56279;47.902;12.308;2023-06-22T07:08:06;12.75;;;5.50;;
69170;SDS011;56279;47.902;12.308;2023-06-22T07:10:07;11.07;;;4.95;;
69170;SDS011;56279;47.902;12.308;2023-06-22T07:12:09;12.73;;;5.03;;
69170;SDS011;56279;47.902;12.308;2023-06-22T07:14:10;12.73;;;5.38;;
69170;SDS011;56279;47.902;12.308;2023-06-22T07:16:11;12.95;;;5.78;;
69170;SDS011;56279;47.902;12.308;2023-06-22T07:18:13;13.93;;;5.72;;
69170;SDS011;56279;47.902;12.308;2023-06-22T07:20:14;10.02;;;5.10;;
69170;SDS011;56279;47.902;12.308;2023-06-22T07:22:15;13.07;;;5.37;;
69170;SDS011;56279;47.902;12.308;2023-06-22T07:24:16;14.32;;;5.25;;
69170;SDS011;56279;47.902;12.308;2023-06-22T07:26:20;12.63;;;5.68;;
69170;SDS011;56279;47.902;12.308;2023-06-22T07:28:21;12.30;;;5.63;;
69170;SDS011;56279;47.902;12.308;2023-06-22T07:30:23;14.75;;;5.97;;
69170;SDS011;56279;47.902;12.308;2023-06-22T07:32:24;15.90;;;6.17;;
69170;SDS011;56279;47.902;12.308;2023-06-22T07:34:26;12.32;;;5.78;;
69170;SDS011;56279;47.902;12.308;2023-06-22T07:36:27;14.25;;;5.50;;
69170;SDS011;56279;47.902;12.308;2023-06-22T07:38:30;14.95;;;5.82;;
69170;SDS011;56279;47.902;12.308;2023-06-22T07:40:32;12.70;;;5.30;;
69170;SDS011;56279;47.902;12.308;2023-06-22T07:42:34;11.37;;;5.40;;
69170;SDS011;56279;47.902;12.308;2023-06-22T07:44:36;12.23;;;5.60;;
69170;SDS011;56279;47.902;12.308;2023-06-22T07:46:37;12.20;;;5.82;;
69170;SDS011;56279;47.902;12.308;2023-06-22T07:48:39;11.70;;;5.40;;
69170;SDS011;56279;47.902;12.308;2023-06-22T07:50:42;12.70;;;5.32;;
69170;SDS011;56279;47.902;12.308;2023-06-22T07:52:44;13.80;;;5.60;;
69170;SDS011;56279;47.902;12.308;2023-06-22T07:54:46;13.93;;;5.20;;
69170;SDS011;56279;47.902;12.308;2023-06-22T07:56:48;11.50;;;5.35;;
69170;SDS011;56279;47.902;12.308;2023-06-22T07:58:49;14.27;;;5.65;;
69170;SDS011;56279;47.902;12.308;2023-06-22T08:00:50;13.75;;;5.28;;
69170;SDS011;56279;47.902;12.308;2023-06-22T08:02:52;12.30;;;4.83;;
69170;SDS011;56279;47.902;12.308;2023-06-22T08:04:53;13.25;;;5.20;;
69170;SDS011;56279;47.902;12.308;2023-06-22T08:06:54;14.40;;;5.22;;
69170;SDS011;56279;47.902;12.308;2023-06-22T08:08:56;15.00;;;5.00;;
69170;SDS011;56279;47.902;12.308;2023-06-22T08:10:57;13.90;;;5.43;;
69170;SDS011;56279;47.902;12.308;2023-06-22T08:12:59;12.83;;;5.47;;
69170;SDS011;56279;47.902;12.308;2023-06-22T08:15:00;13.73;;;4.88;;
69170;SDS011;56279;47.902;12.308;2023-06-22T08:17:02;13.45;;;5.70;;
69170;SDS011;56279;47.902;12.308;2023-06-22T08:19:03;16.05;;;5.78;;
69170;SDS011;56279;47.902;12.308;2023-06-22T08:21:04;17.88;;;5.72;;
69170;SDS011;56279;47.902;12.308;2023-06-22T08:23:05;13.10;;;5.40;;
69170;SDS011;56279;47.902;12.308;2023-06-22T08:25:07;15.45;;;5.35;;
69170;SDS011;56279;47.902;12.308;2023-06-22T08:27:09;12.50;;;4.88;;
69170;SDS011;56279;47.902;12.308;2023-06-22T08:29:14;12.02;;;5.82;;
69170;SDS011;56279;47.902;12.308;2023-06-22T08:31:15;13.20;;;5.32;;
69170;SDS011;56279;47.902;12.308;2023-06-22T08:33:16;15.77;;;5.40;;
69170;SDS011;56279;47.902;12.308;2023-06-22T08:35:18;10.93;;;5.10;;
69170;SDS011;56279;47.902;12.308;2023-06-22T08:37:19;12.52;;;5.60;;
69170;SDS011;56279;47.902;12.308;2023-06-22T08:39:21;11.82;;;5.30;;
69170;SDS011;56279;47.902;12.308;2023-06-22T08:41:22;15.63;;;5.50;;
69170;SDS011;56279;47.902;12.308;2023-06-22T08:43:23;11.00;;;5.13;;
69170;SDS011;56279;47.902;12.308;2023-06-22T08:45:24;12.32;;;4.95;;
69170;SDS011;56279;47.902;12.308;2023-06-22T08:47:29;14.35;;;5.82;;
69170;SDS011;56279;47.902;12.308;2023-06-22T08:49:30;15.30;;;6.07;;
69170;SDS011;56279;47.902;12.308;2023-06-22T08:51:31;13.80;;;5.85;;
69170;SDS011;56279;47.902;12.308;2023-06-22T08:53:33;14.57;;;5.40;;
69170;SDS011;56279;47.902;12.308;2023-06-22T08:55:35;16.95;;;5.35;;
69170;SDS011;56279;47.902;12.308;2023-06-22T08:57:37;13.30;;;5.60;;
69170;SDS011;56279;47.902;12.308;2023-06-22T08:59:39;12.80;;;5.22;;
69170;SDS011;56279;47.902;12.308;2023-06-22T09:01:41;12.73;;;6.10;;
69170;SDS011;56279;47.902;12.308;2023-06-22T09:03:46;13.97;;;4.93;;
69170;SDS011;56279;47.902;12.308;2023-06-22T09:05:55;13.77;;;5.30;;
69170;SDS011;56279;47.902;12.308;2023-06-22T09:07:57;11.95;;;5.20;;
69170;SDS011;56279;47.902;12.308;2023-06-22T09:09:59;14.38;;;5.63;;
69170;SDS011;56279;47.902;12.308;2023-06-22T09:12:00;11.52;;;6.03;;
69170;SDS011;56279;47.902;12.308;2023-06-22T09:14:02;13.93;;;5.20;;
69170;SDS011;56279;47.902;12.308;2023-06-22T09:16:04;16.08;;;5.60;;
69170;SDS011;56279;47.902;12.308;2023-06-22T09:18:06;13.43;;;6.07;;
69170;SDS011;56279;47.902;12.308;2023-06-22T09:20:07;16.52;;;5.57;;
69170;SDS011;56279;47.902;12.308;2023-06-22T09:22:11;13.02;;;5.55;;
69170;SDS011;56279;47.902;12.308;2023-06-22T09:24:13;13.70;;;5.17;;
69170;SDS011;56279;47.902;12.308;2023-06-22T09:26:14;15.10;;;5.40;;
69170;SDS011;56279;47.902;12.308;2023-06-22T09:28:15;13.93;;;5.63;;
69170;SDS011;56279;47.902;12.308;2023-06-22T09:30:16;14.95;;;5.53;;
69170;SDS011;56279;47.902;12.308;2023-06-22T09:32:18;13.85;;;5.20;;
69170;SDS011;56279;47.902;12.308;2023-06-22T09:34:19;13.43;;;5.40;;
69170;SDS011;56279;47.902;12.308;2023-06-22T09:36:21;14.45;;;5.45;;
69170;SDS011;56279;47.902;12.308;2023-06-22T09:38:22;14.25;;;5.30;;
69170;SDS011;56279;47.902;12.308;2023-06-22T09:40:24;11.20;;;5.00;;
69170;SDS011;56279;47.902;12.308;2023-06-22T09:42:25;16.90;;;5.78;;
69170;SDS011;56279;47.902;12.308;2023-06-22T09:44:26;14.73;;;5.57;;
69170;SDS011;56279;47.902;12.308;2023-06-22T09:46:27;15.63;;;5.45;;
69170;SDS011;56279;47.902;12.308;2023-06-22T09:48:29;14.25;;;5.88;;
69170;SDS011;56279;47.902;12.308;2023-06-22T09:50:31;18.45;;;6.28;;
69170;SDS011;56279;47.902;12.308;2023-06-22T09:52:32;17.45;;;5.22;;
69170;SDS011;56279;47.902;12.308;2023-06-22T09:54:33;15.83;;;5.60;;
69170;SDS011;56279;47.902;12.308;2023-06-22T09:56:35;15.13;;;5.70;;
69170;SDS011;56279;47.902;12.308;2023-06-22T09:58:38;14.40;;;5.70;;
69170;SDS011;56279;47.902;12.308;2023-06-22T10:00:39;16.30;;;5.78;;
69170;SDS011;56279;47.902;12.308;2023-06-22T10:02:42;16.63;;;6.38;;
69170;SDS011;56279;47.902;12.308;2023-06-22T10:04:43;13.13;;;5.57;;
69170;SDS011;56279;47.902;12.308;2023-06-22T10:06:45;16.95;;;5.45;;
69170;SDS011;56279;47.902;12.308;2023-06-22T10:08:46;11.52;;;5.13;;
69170;SDS011;56279;47.902;12.308;2023-06-22T10:10:49;14.63;;;5.70;;
69170;SDS011;56279;47.902;12.308;2023-06-22T10:12:57;15.23;;;5.60;;
69170;SDS011;56279;47.902;12.308;2023-06-22T10:15:03;13.80;;;5.83;;
69170;SDS011;56279;47.902;12.308;2023-06-22T10:17:05;16.30;;;5.93;;
69170;SDS011;56279;47.902;12.308;2023-06-22T10:19:08;14.77;;;5.40;;
69170;SDS011;56279;47.902;12.308;2023-06-22T10:21:09;15.40;;;6.13;;
69170;SDS011;56279;47.902;12.308;2023-06-22T10:23:10;16.65;;;5.43;;
69170;SDS011;56279;47.902;12.308;2023-06-22T10:25:12;9.60;;;4.83;;
69170;SDS011;56279;47.902;12.308;2023-06-22T10:27:13;14.50;;;5.90;;
69170;SDS011;56279;47.902;12.308;2023-06-22T10:29:15;15.20;;;5.35;;
69170;SDS011;56279;47.902;12.308;2023-06-22T10:31:17;13.30;;;5.82;;
69170;SDS011;56279;47.902;12.308;2023-06-22T10:33:18;21.52;;;5.85;;
69170;SDS011;56279;47.902;12.308;2023-06-22T10:35:19;16.83;;;5.80;;
69170;SDS011;56279;47.902;12.308;2023-06-22T10:37:21;10.90;;;5.00;;
69170;SDS011;56279;47.902;12.308;2023-06-22T10:39:22;13.02;;;5.20;;
69170;SDS011;56279;47.902;12.308;2023-06-22T10:41:23;15.65;;;5.32;;
69170;SDS011;56279;47.902;12.308;2023-06-22T10:43:25;16.38;;;5.88;;
69170;SDS011;56279;47.902;12.308;2023-06-22T10:45:28;11.80;;;5.23;;
69170;SDS011;56279;47.902;12.308;2023-06-22T10:47:29;17.17;;;5.60;;
69170;SDS011;56279;47.902;12.308;2023-06-22T10:49:30;11.65;;;5.57;;
69170;SDS011;56279;47.902;12.308;2023-06-22T10:51:32;14.65;;;5.72;;
69170;SDS011;56279;47.902;12.308;2023-06-22T10:53:33;15.82;;;5.35;;
69170;SDS011;56279;47.902;12.308;2023-06-22T10:55:34;13.13;;;5.63;;
69170;SDS011;56279;47.902;12.308;2023-06-22T10:57:36;11.93;;;5.28;;
69170;SDS011;56279;47.902;12.308;2023-06-22T10:59:37;15.55;;;5.82;;
69170;SDS011;56279;47.902;12.308;2023-06-22T11:01:40;15.60;;;6.20;;
69170;SDS011;56279;47.902;12.308;2023-06-22T11:03:41;21.38;;;5.88;;
69170;SDS011;56279;47.902;12.308;2023-06-22T11:05:42;14.70;;;4.97;;
69170;SDS011;56279;47.902;12.308;2023-06-22T11:07:43;13.18;;;5.35;;
69170;SDS011;56279;47.902;12.308;2023-06-22T11:09:45;12.48;;;5.30;;
69170;SDS011;56279;47.902;12.308;2023-06-22T11:11:46;18.23;;;5.15;;
69170;SDS011;56279;47.902;12.308;2023-06-22T11:13:48;14.57;;;5.18;;
69170;SDS011;56279;47.902;12.308;2023-06-22T11:15:49;15.83;;;5.07;;
69170;SDS011;56279;47.902;12.308;2023-06-22T11:17:51;13.70;;;4.80;;
69170;SDS011;56279;47.902;12.308;2023-06-22T11:19:52;13.27;;;5.40;;
69170;SDS011;56279;47.902;12.308;2023-06-22T11:21:53;14.65;;;5.28;;
69170;SDS011;56279;47.902;12.308;2023-06-22T11:23:54;14.82;;;5.13;;
69170;SDS011;56279;47.902;12.308;2023-06-22T11:25:56;20.03;;;5.30;;
69170;SDS011;56279;47.902;12.308;2023-06-22T11:27:57;14.88;;;5.40;;
69170;SDS011;56279;47.902;12.308;2023-06-22T11:29:58;13.00;;;5.38;;
69170;SDS011;56279;47.902;12.308;2023-06-22T11:31:59;13.30;;;4.95;;
69170;SDS011;56279;47.902;12.308;2023-06-22T11:34:01;15.63;;;5.65;;
69170;SDS011;56279;47.902;12.308;2023-06-22T11:36:03;12.53;;;5.33;;
69170;SDS011;56279;47.902;12.308;2023-06-22T11:38:04;21.25;;;6.13;;
69170;SDS011;56279;47.902;12.308;2023-06-22T11:40:06;15.93;;;5.53;;
69170;SDS011;56279;47.902;12.308;2023-06-22T11:42:10;18.38;;;6.00;;
69170;SDS011;56279;47.902;12.308;2023-06-22T11:44:11;18.92;;;5.55;;
69170;SDS011;56279;47.902;12.308;2023-06-22T11:46:12;14.43;;;5.50;;
69170;SDS011;56279;47.902;12.308;2023-06-22T11:48:14;16.55;;;5.72;;
69170;SDS011;56279;47.902;12.308;2023-06-22T11:50:15;16.33;;;5.63;;
69170;SDS011;56279;47.902;12.308;2023-06-22T11:52:16;14.70;;;5.25;;
69170;SDS011;56279;47.902;12.308;2023-06-22T11:54:20;14.75;;;5.55;;
69170;SDS011;56279;47.902;12.308;2023-06-22T11:56:24;15.47;;;5.50;;
69170;SDS011;56279;47.902;12.308;2023-06-22T11:58:25;15.27;;;5.22;;
69170;SDS011;56279;47.902;12.308;2023-06-22T12:00:27;15.80;;;5.72;;
69170;SDS011;56279;47.902;12.308;2023-06-22T12:02:29;14.65;;;5.15;;